createdAt,value
2022-09-15T00:01:34.455Z,13.01
2022-09-15T00:04:03.829Z,12.96
2022-09-15T00:06:32.559Z,12.95
2022-09-15T00:09:01.165Z,12.92
2022-09-15T00:11:31.599Z,12.98
2022-09-15T00:14:01.971Z,12.96
2022-09-15T00:16:32.968Z,13.00
2022-09-15T00:19:01.969Z,12.92
2022-09-15T00:21:32.628Z,12.91
2022-09-15T00:24:02.422Z,12.89
2022-09-15T00:26:32.662Z,12.92
2022-09-15T00:29:01.746Z,12.91
2022-09-15T00:31:33.162Z,12.93
2022-09-15T00:34:03.761Z,12.87
2022-09-15T00:36:32.243Z,12.81
2022-09-15T00:39:00.687Z,12.84
2022-09-15T00:41:29.523Z,12.83
2022-09-15T00:44:00.100Z,12.81
2022-09-15T00:46:32.660Z,12.78
2022-09-15T00:49:04.728Z,12.73
2022-09-15T00:51:41.422Z,12.72
2022-09-15T00:54:15.885Z,12.73
2022-09-15T00:56:47.073Z,12.82
2022-09-15T00:59:20.171Z,12.85
2022-09-15T01:01:56.199Z,12.86
2022-09-15T01:04:25.105Z,12.91
2022-09-15T01:06:59.037Z,12.88
2022-09-15T01:09:30.567Z,12.84
2022-09-15T01:11:59.257Z,12.83
2022-09-15T01:14:27.700Z,12.85
2022-09-15T01:17:06.921Z,12.80
2022-09-15T01:20:11.450Z,12.78
2022-09-15T01:22:55.265Z,12.83
2022-09-15T01:25:41.387Z,12.78
2022-09-15T01:28:46.885Z,12.77
2022-09-15T01:31:22.735Z,12.80
2022-09-15T01:33:58.094Z,12.74
2022-09-15T01:36:33.622Z,12.67
2022-09-15T01:39:08.780Z,12.62
2022-09-15T01:41:49.712Z,12.59
2022-09-15T01:44:23.981Z,12.54
2022-09-15T01:46:57.734Z,12.54
2022-09-15T01:49:29.905Z,12.50
2022-09-15T01:51:58.295Z,12.45
2022-09-15T01:54:32.476Z,12.33
2022-09-15T01:57:01.511Z,12.22
2022-09-15T01:59:29.974Z,12.14
2022-09-15T02:02:05.008Z,12.07
2022-09-15T02:04:39.709Z,12.07
2022-09-15T02:07:15.128Z,12.08
2022-09-15T02:09:49.210Z,12.13
2022-09-15T02:12:21.826Z,12.20
2022-09-15T02:14:58.365Z,12.29
2022-09-15T02:17:32.593Z,12.38
2022-09-15T02:20:09.035Z,12.35
2022-09-15T02:22:40.824Z,12.36
2022-09-15T02:25:13.949Z,12.32
2022-09-15T02:27:48.167Z,12.27
2022-09-15T02:30:19.601Z,12.28
2022-09-15T02:32:54.424Z,12.30
2022-09-15T02:35:24.896Z,12.31
2022-09-15T02:37:53.981Z,12.32
2022-09-15T02:40:23.458Z,12.30
2022-09-15T02:42:56.605Z,12.27
2022-09-15T02:45:25.757Z,12.20
2022-09-15T02:47:56.001Z,12.13
2022-09-15T02:50:26.326Z,12.07
2022-09-15T02:52:55.198Z,11.88
2022-09-15T02:55:24.837Z,11.81
2022-09-15T02:57:53.131Z,11.79
2022-09-15T03:00:21.512Z,11.61
2022-09-15T03:02:51.537Z,11.46
2022-09-15T03:05:22.919Z,11.35
2022-09-15T03:07:52.114Z,11.26
2022-09-15T03:10:21.956Z,11.20
2022-09-15T03:12:52.400Z,11.11
2022-09-15T03:15:23.201Z,11.05
2022-09-15T03:17:52.677Z,10.93
2022-09-15T03:20:24.651Z,10.80
2022-09-15T03:22:52.956Z,10.78
2022-09-15T03:25:21.870Z,10.71
2022-09-15T03:27:50.312Z,10.64
2022-09-15T03:30:19.048Z,10.67
2022-09-15T03:32:48.625Z,10.66
2022-09-15T03:35:17.069Z,10.55
2022-09-15T03:37:46.820Z,10.51
2022-09-15T03:40:15.256Z,10.43
2022-09-15T03:42:43.605Z,10.38
2022-09-15T03:45:11.960Z,10.27
2022-09-15T03:47:40.225Z,10.21
2022-09-15T03:50:09.009Z,10.22
2022-09-15T03:52:37.357Z,10.15
2022-09-15T03:55:07.836Z,10.14
2022-09-15T03:57:36.148Z,10.13
2022-09-15T04:00:06.329Z,10.07
2022-09-15T04:02:34.964Z,10.10
2022-09-15T04:05:03.601Z,10.12
2022-09-15T04:07:31.920Z,10.15
2022-09-15T04:10:00.893Z,10.14
2022-09-15T04:12:32.401Z,10.14
2022-09-15T04:15:00.690Z,10.20
2022-09-15T04:17:29.451Z,10.23
2022-09-15T04:19:57.799Z,10.20
2022-09-15T04:22:26.222Z,10.25
2022-09-15T04:24:54.560Z,10.35
2022-09-15T04:27:23.147Z,10.50
2022-09-15T04:29:53.774Z,10.50
2022-09-15T04:32:29.686Z,10.54
2022-09-15T04:34:57.980Z,10.52
2022-09-15T04:37:26.330Z,10.48
2022-09-15T04:39:54.767Z,10.48
2022-09-15T04:42:23.902Z,10.46
2022-09-15T04:44:53.772Z,10.63
2022-09-15T04:47:22.154Z,10.73
2022-09-15T04:49:50.646Z,10.78
2022-09-15T04:52:19.020Z,10.78
2022-09-15T04:54:47.455Z,10.84
2022-09-15T04:57:16.758Z,10.89
2022-09-15T04:59:45.111Z,10.92
2022-09-15T05:02:14.897Z,11.04
2022-09-15T05:04:43.873Z,11.05
2022-09-15T05:07:12.304Z,11.11
2022-09-15T05:09:40.663Z,11.07
2022-09-15T05:12:08.985Z,11.17
2022-09-15T05:14:37.545Z,11.21
2022-09-15T05:17:06.009Z,11.20
2022-09-15T05:19:35.843Z,11.18
2022-09-15T05:22:05.856Z,11.21
2022-09-15T05:24:34.672Z,11.23
2022-09-15T05:27:02.983Z,11.27
2022-09-15T05:29:31.318Z,11.30
2022-09-15T05:31:59.633Z,11.33
2022-09-15T05:34:27.949Z,11.41
2022-09-15T05:36:57.941Z,11.41
2022-09-15T05:39:26.285Z,11.39
2022-09-15T05:41:55.186Z,11.48
2022-09-15T05:44:23.679Z,11.56
2022-09-15T05:46:52.289Z,11.60
2022-09-15T05:49:20.717Z,11.60
2022-09-15T05:51:51.195Z,11.73
2022-09-15T05:54:21.281Z,11.78
2022-09-15T05:56:49.671Z,11.84
2022-09-15T05:59:18.231Z,11.98
2022-09-15T06:01:46.601Z,12.06
2022-09-15T06:04:14.980Z,12.25
2022-09-15T06:06:43.362Z,12.40
2022-09-15T06:09:11.784Z,12.40
2022-09-15T06:11:41.460Z,12.45
2022-09-15T06:14:09.767Z,12.39
2022-09-15T06:16:39.079Z,12.46
2022-09-15T06:19:07.546Z,12.52
2022-09-15T06:21:35.855Z,12.53
2022-09-15T06:24:06.812Z,12.53
2022-09-15T06:26:35.349Z,12.65
2022-09-15T06:29:06.282Z,12.81
2022-09-15T06:31:35.645Z,13.09
2022-09-15T06:34:05.251Z,13.55
2022-09-15T06:36:33.879Z,13.82
2022-09-15T06:39:02.761Z,13.86
2022-09-15T06:41:52.538Z,13.86
2022-09-15T06:44:21.278Z,14.04
2022-09-15T06:46:50.272Z,13.92
2022-09-15T06:49:19.095Z,14.02
2022-09-15T06:51:47.416Z,14.02
2022-09-15T06:54:16.664Z,13.93
2022-09-15T06:56:45.745Z,13.96
2022-09-15T06:59:15.180Z,13.92
2022-09-15T07:01:44.925Z,14.01
2022-09-15T07:04:13.297Z,13.89
2022-09-15T07:06:41.563Z,13.93
2022-09-15T07:09:11.936Z,14.09
2022-09-15T07:11:40.697Z,14.32
2022-09-15T07:14:09.262Z,14.50
2022-09-15T07:16:37.974Z,14.50
2022-09-15T07:19:07.733Z,14.45
2022-09-15T07:21:36.062Z,14.50
2022-09-15T07:24:07.247Z,14.35
2022-09-15T07:26:36.225Z,14.33
2022-09-15T07:29:06.681Z,14.29
2022-09-15T07:31:37.128Z,14.40
2022-09-15T07:34:08.425Z,14.50
2022-09-15T07:36:36.800Z,14.66
2022-09-15T07:39:06.013Z,14.91
2022-09-15T07:41:34.940Z,14.74
2022-09-15T07:44:03.829Z,14.75
2022-09-15T07:46:33.564Z,14.62
2022-09-15T07:49:03.142Z,14.76
2022-09-15T07:51:32.996Z,15.08
2022-09-15T07:54:01.636Z,15.03
2022-09-15T07:56:30.065Z,15.16
2022-09-15T07:58:58.743Z,15.17
2022-09-15T08:01:27.177Z,15.88
2022-09-15T08:03:56.037Z,16.67
2022-09-15T08:06:26.725Z,17.30
2022-09-15T08:09:00.647Z,17.41
2022-09-15T08:11:30.034Z,17.08
2022-09-15T08:14:02.025Z,17.42
2022-09-15T08:16:30.473Z,17.30
2022-09-15T08:18:59.852Z,17.22
2022-09-15T08:21:29.040Z,17.49
2022-09-15T08:24:01.037Z,17.75
2022-09-15T08:26:40.534Z,18.00
2022-09-15T08:29:09.130Z,18.25
2022-09-15T08:31:37.473Z,17.97
2022-09-15T08:34:06.896Z,18.20
2022-09-15T08:36:50.464Z,17.89
2022-09-15T08:39:20.309Z,17.73
2022-09-15T08:41:51.530Z,17.52
2022-09-15T08:44:34.156Z,18.42
2022-09-15T08:47:13.859Z,18.57
2022-09-15T08:49:52.256Z,18.45
2022-09-15T08:52:32.494Z,18.49
2022-09-15T08:55:12.544Z,18.36
2022-09-15T08:57:41.205Z,18.28
2022-09-15T09:00:19.615Z,18.06
2022-09-15T09:03:09.328Z,17.80
2022-09-15T09:05:57.721Z,17.67
2022-09-15T09:09:00.108Z,17.44
2022-09-15T09:11:46.931Z,17.69
2022-09-15T09:14:24.509Z,17.69
2022-09-15T09:17:11.591Z,17.86
2022-09-15T09:19:58.844Z,18.90
2022-09-15T09:22:31.827Z,18.87
2022-09-15T09:25:21.146Z,19.30
2022-09-15T09:27:56.254Z,19.54
2022-09-15T09:30:26.560Z,19.40
2022-09-15T09:33:10.586Z,19.37
2022-09-15T09:35:43.972Z,19.54
2022-09-15T09:38:15.605Z,19.92
2022-09-15T09:40:49.332Z,20.67
2022-09-15T09:43:19.445Z,22.24
2022-09-15T09:45:47.824Z,22.26
2022-09-15T09:48:20.852Z,22.29
2022-09-15T09:50:50.688Z,21.57
2022-09-15T09:53:32.666Z,20.94
2022-09-15T09:56:17.947Z,20.38
2022-09-15T09:58:53.159Z,19.41
2022-09-15T10:01:28.038Z,19.44
2022-09-15T10:04:18.039Z,18.90
2022-09-15T10:06:54.257Z,19.10
2022-09-15T10:09:24.902Z,19.02
2022-09-15T10:11:56.010Z,19.11
2022-09-15T10:14:33.151Z,19.34
2022-09-15T10:17:09.832Z,19.17
2022-09-15T10:19:46.045Z,19.40
2022-09-15T10:22:32.548Z,19.61
2022-09-15T10:25:44.268Z,20.23
2022-09-15T10:28:27.011Z,20.47
2022-09-15T10:31:05.994Z,21.36
2022-09-15T10:33:35.998Z,21.40
2022-09-15T10:36:15.661Z,22.37
2022-09-15T10:38:46.112Z,21.93
2022-09-15T10:41:26.898Z,23.14
2022-09-15T10:44:18.593Z,23.17
2022-09-15T10:46:56.275Z,23.45
2022-09-15T10:49:54.919Z,23.38
2022-09-15T10:52:35.432Z,23.69
2022-09-15T10:55:48.863Z,23.63
2022-09-15T10:58:45.852Z,22.48
2022-09-15T11:01:33.261Z,21.94
2022-09-15T11:04:32.289Z,21.32
2022-09-15T11:07:09.536Z,21.49
2022-09-15T11:09:54.169Z,21.43
2022-09-15T11:12:38.534Z,21.52
2022-09-15T11:15:30.643Z,21.95
2022-09-15T11:18:17.161Z,23.58
2022-09-15T11:21:11.859Z,23.66
2022-09-15T11:23:47.861Z,22.67
2022-09-15T11:26:21.629Z,22.81
2022-09-15T11:29:01.221Z,22.32
2022-09-15T11:31:39.249Z,22.83
2022-09-15T11:34:17.365Z,22.55
2022-09-15T11:37:04.025Z,22.31
2022-09-15T11:39:39.544Z,22.90
2022-09-15T11:42:11.183Z,23.74
2022-09-15T11:44:42.565Z,24.13
2022-09-15T11:47:23.191Z,23.69
2022-09-15T11:49:56.905Z,23.34
2022-09-15T11:52:46.507Z,23.43
2022-09-15T11:55:30.457Z,23.50
2022-09-15T11:58:17.328Z,23.04
2022-09-15T12:00:55.516Z,23.13
2022-09-15T12:03:30.141Z,23.10
2022-09-15T12:06:06.115Z,23.12
2022-09-15T12:08:45.121Z,23.29
2022-09-15T12:11:22.265Z,22.81
2022-09-15T12:13:52.070Z,22.23
2022-09-15T12:16:21.486Z,22.05
2022-09-15T12:18:54.106Z,21.47
2022-09-15T12:21:33.926Z,21.75
2022-09-15T12:24:14.688Z,21.54
2022-09-15T12:26:46.360Z,21.33
2022-09-15T12:29:41.836Z,21.21
2022-09-15T12:32:26.277Z,21.17
2022-09-15T12:35:03.518Z,20.94
2022-09-15T12:37:39.675Z,20.63
2022-09-15T12:40:27.714Z,20.61
2022-09-15T12:42:56.672Z,20.76
2022-09-15T12:45:28.630Z,20.61
2022-09-15T12:48:02.458Z,20.44
2022-09-15T12:50:33.826Z,20.21
2022-09-15T12:53:04.881Z,20.02
2022-09-15T12:55:37.393Z,20.01
2022-09-15T12:58:09.590Z,19.80
2022-09-15T13:00:54.738Z,20.14
2022-09-15T13:03:28.196Z,20.21
2022-09-15T13:06:21.424Z,19.73
2022-09-15T13:08:52.276Z,19.81
2022-09-15T13:11:39.132Z,19.69
2022-09-15T13:14:14.946Z,19.55
2022-09-15T13:16:56.598Z,19.23
2022-09-15T13:19:30.966Z,19.04
2022-09-15T13:22:04.514Z,18.90
2022-09-15T13:24:49.618Z,18.84
2022-09-15T13:27:26.592Z,18.68
2022-09-15T13:30:03.784Z,18.49
2022-09-15T13:32:43.511Z,18.21
2022-09-15T13:35:39.900Z,18.09
2022-09-15T13:38:35.867Z,18.07
2022-09-15T13:41:25.769Z,18.08
2022-09-15T13:44:36.101Z,18.02
2022-09-15T13:47:21.717Z,17.99
2022-09-15T13:49:54.823Z,17.90
2022-09-15T13:52:40.117Z,17.80
2022-09-15T13:55:34.142Z,17.65
2022-09-15T14:01:04.701Z,17.01
2022-09-15T14:03:42.196Z,16.74
2022-09-15T14:06:15.711Z,16.51
2022-09-15T14:08:47.006Z,16.37
2022-09-15T14:11:18.015Z,16.16
2022-09-15T14:13:48.574Z,16.07
2022-09-15T14:16:24.589Z,15.88
2022-09-15T14:19:09.096Z,15.98
2022-09-15T14:21:48.926Z,15.89
2022-09-15T14:24:21.920Z,15.76
2022-09-15T14:27:03.274Z,15.66
2022-09-15T14:29:31.694Z,15.65
2022-09-15T14:32:03.811Z,15.66
2022-09-15T14:34:38.745Z,15.66
2022-09-15T14:37:21.462Z,15.58
2022-09-15T14:39:50.819Z,15.58
2022-09-15T14:42:22.851Z,15.58
2022-09-15T14:47:43.336Z,15.66
2022-09-15T14:50:16.873Z,15.68
2022-09-15T14:53:01.917Z,15.62
2022-09-15T14:55:34.219Z,15.55
2022-09-15T14:58:06.045Z,15.50
2022-09-15T15:00:41.630Z,15.47
2022-09-15T15:03:22.878Z,15.38
2022-09-15T15:06:02.806Z,15.36
2022-09-15T15:09:03.320Z,15.34
2022-09-15T15:11:34.170Z,15.33
2022-09-15T15:14:07.259Z,15.33
2022-09-15T15:16:35.910Z,15.30
2022-09-15T15:19:04.382Z,15.25
2022-09-15T15:21:45.096Z,15.32
2022-09-15T15:24:25.620Z,15.38
2022-09-15T15:26:54.144Z,15.56
2022-09-15T15:29:44.078Z,15.76
2022-09-15T15:32:20.083Z,16.01
2022-09-15T15:34:53.669Z,16.35
2022-09-15T15:37:28.473Z,16.45
2022-09-15T15:40:02.113Z,16.42
2022-09-15T15:42:31.021Z,16.31
2022-09-15T15:45:01.617Z,16.30
2022-09-15T15:47:32.577Z,16.30
2022-09-15T15:50:13.382Z,16.20
2022-09-15T15:52:47.125Z,16.23
2022-09-15T15:55:16.450Z,16.25
2022-09-15T15:57:45.585Z,16.35
2022-09-15T16:00:23.880Z,16.38
2022-09-15T16:02:53.200Z,16.34
2022-09-15T16:05:24.633Z,16.44
2022-09-15T16:07:56.639Z,16.44
2022-09-15T16:10:36.758Z,16.44
2022-09-15T16:13:05.129Z,16.60
2022-09-15T16:15:33.863Z,16.46
2022-09-15T16:18:02.260Z,16.41
2022-09-15T16:20:33.491Z,16.28
2022-09-15T16:23:03.477Z,16.15
2022-09-15T16:25:37.558Z,16.02
2022-09-15T16:28:06.133Z,15.94
2022-09-15T16:30:42.690Z,15.88
2022-09-15T16:33:14.601Z,15.82
2022-09-15T16:35:51.056Z,15.72
2022-09-15T16:38:21.555Z,15.65
2022-09-15T16:40:51.162Z,15.66
2022-09-15T16:43:21.765Z,15.63
2022-09-15T16:45:50.727Z,15.58
2022-09-15T16:48:19.660Z,15.55
2022-09-15T16:51:16.910Z,15.42
2022-09-15T16:53:40.677Z,15.34
2022-09-15T16:56:12.440Z,15.31
2022-09-15T16:58:41.188Z,15.23
2022-09-15T17:01:18.640Z,15.18
2022-09-15T17:03:47.250Z,15.13
2022-09-15T17:06:18.608Z,15.11
2022-09-15T17:08:48.319Z,15.03
2022-09-15T17:11:20.518Z,14.98
2022-09-15T17:13:53.168Z,15.00
2022-09-15T17:16:21.903Z,15.01
2022-09-15T17:18:50.435Z,15.00
2022-09-15T17:21:22.413Z,15.08
2022-09-15T17:23:52.544Z,15.04
2022-09-15T17:26:28.812Z,14.97
2022-09-15T17:28:58.939Z,14.93
2022-09-15T17:31:28.374Z,14.84
2022-09-15T17:34:02.128Z,14.84
2022-09-15T17:36:30.486Z,14.75
2022-09-15T17:39:00.299Z,14.70
2022-09-15T17:41:28.729Z,14.71
2022-09-15T17:43:57.101Z,14.66
2022-09-15T17:46:25.530Z,14.62
2022-09-15T17:48:53.898Z,14.60
2022-09-15T17:51:22.525Z,14.62
2022-09-15T17:53:50.896Z,14.59
2022-09-15T17:56:20.892Z,14.55
2022-09-15T17:58:49.337Z,14.46
2022-09-15T18:01:17.727Z,14.50
2022-09-15T18:03:46.750Z,14.43
2022-09-15T18:06:15.113Z,14.37
2022-09-15T18:08:43.605Z,14.36
2022-09-15T18:11:14.934Z,14.41
2022-09-15T18:13:44.741Z,14.44
2022-09-15T18:16:14.880Z,14.41
2022-09-15T18:18:43.649Z,14.39
2022-09-15T18:21:24.526Z,14.33
2022-09-15T18:23:52.821Z,14.35
2022-09-15T18:26:23.869Z,14.40
2022-09-15T18:28:56.838Z,14.31
2022-09-15T18:31:25.752Z,14.25
2022-09-15T18:33:54.289Z,14.17
2022-09-15T18:36:22.880Z,14.12
2022-09-15T18:38:51.248Z,14.11
2022-09-15T18:41:19.594Z,14.10
2022-09-15T18:43:48.980Z,14.29
2022-09-15T18:46:18.881Z,14.58
2022-09-15T18:48:47.918Z,14.86
2022-09-15T18:51:23.982Z,15.07
2022-09-15T18:53:54.420Z,15.14
2022-09-15T18:56:23.018Z,15.34
2022-09-15T18:58:53.398Z,15.30
2022-09-15T19:01:24.054Z,15.48
2022-09-15T19:03:52.519Z,15.37
2022-09-15T19:06:20.807Z,15.38
2022-09-15T19:08:49.293Z,15.24
2022-09-15T19:11:17.989Z,15.24
2022-09-15T19:13:46.457Z,15.09
2022-09-15T19:16:14.894Z,15.06
2022-09-15T19:18:46.142Z,15.09
2022-09-15T19:21:14.510Z,15.04
2022-09-15T19:23:42.835Z,15.09
2022-09-15T19:26:13.594Z,14.99
2022-09-15T19:28:41.998Z,14.79
2022-09-15T19:31:10.766Z,14.78
2022-09-15T19:33:39.828Z,14.72
2022-09-15T19:36:27.562Z,14.65
2022-09-15T19:38:57.389Z,14.70
2022-09-15T19:41:25.699Z,14.57
2022-09-15T19:43:54.457Z,14.57
2022-09-15T19:46:26.134Z,14.56
2022-09-15T19:48:55.086Z,14.65
2022-09-15T19:51:25.453Z,14.87
2022-09-15T19:53:57.904Z,14.81
2022-09-15T19:56:27.779Z,14.69
2022-09-15T19:58:57.702Z,14.54
2022-09-15T20:01:27.496Z,14.45
2022-09-15T20:03:57.610Z,14.50
2022-09-15T20:06:31.677Z,14.63
2022-09-15T20:09:00.737Z,14.78
2022-09-15T20:11:31.140Z,14.74
2022-09-15T20:14:00.650Z,14.89
2022-09-15T20:16:29.634Z,14.88
2022-09-15T20:18:58.738Z,14.75
2022-09-15T20:21:50.194Z,14.58
2022-09-15T20:24:20.566Z,14.40
2022-09-15T20:26:49.196Z,14.10
2022-09-15T20:29:17.934Z,13.76
2022-09-15T20:31:46.625Z,13.59
2022-09-15T20:34:15.538Z,13.50
2022-09-15T20:36:45.611Z,13.38
2022-09-15T20:39:15.787Z,13.26
2022-09-15T20:41:45.620Z,13.25
2022-09-15T20:44:14.708Z,13.18
2022-09-15T20:46:43.705Z,13.13
2022-09-15T20:49:12.346Z,13.07
2022-09-15T20:51:40.756Z,13.09
2022-09-15T20:54:11.588Z,13.10
2022-09-15T20:56:39.962Z,13.11
2022-09-15T20:59:10.485Z,13.13
2022-09-15T21:01:40.264Z,13.12
2022-09-15T21:04:09.971Z,13.05
2022-09-15T21:06:39.235Z,13.09
2022-09-15T21:09:07.863Z,13.04
2022-09-15T21:11:39.672Z,13.03
2022-09-15T21:14:08.019Z,13.06
2022-09-15T21:16:36.361Z,13.08
2022-09-15T21:19:05.089Z,13.03
2022-09-15T21:21:33.975Z,13.01
2022-09-15T21:24:04.851Z,12.99
2022-09-15T21:26:35.171Z,13.10
2022-09-15T21:29:04.840Z,13.02
2022-09-15T21:31:34.108Z,12.98
2022-09-15T21:34:02.471Z,12.92
2022-09-15T21:36:32.534Z,12.90
2022-09-15T21:39:02.626Z,12.92
2022-09-15T21:41:31.280Z,12.91
2022-09-15T21:44:00.917Z,12.96
2022-09-15T21:46:32.173Z,13.02
2022-09-15T21:49:01.447Z,12.98
2022-09-15T21:51:31.136Z,12.95
2022-09-15T21:54:00.601Z,12.97
2022-09-15T21:56:30.792Z,12.94
2022-09-15T21:58:59.188Z,12.95
2022-09-15T22:01:30.556Z,12.95
2022-09-15T22:04:00.728Z,12.97
2022-09-15T22:06:31.724Z,12.90
2022-09-15T22:09:00.832Z,12.88
2022-09-15T22:11:29.753Z,12.86
2022-09-15T22:13:58.217Z,12.80
2022-09-15T22:16:26.739Z,12.82
2022-09-15T22:18:56.998Z,12.70
2022-09-15T22:21:27.277Z,12.64
2022-09-15T22:23:57.573Z,12.58
2022-09-15T22:26:28.693Z,12.66
2022-09-15T22:28:57.602Z,12.66
2022-09-15T22:31:27.162Z,12.66
2022-09-15T22:33:57.637Z,12.64
2022-09-15T22:36:29.537Z,12.62
2022-09-15T22:39:03.804Z,12.66
2022-09-15T22:41:33.405Z,12.69
2022-09-15T22:44:01.728Z,12.64
2022-09-15T22:46:30.038Z,12.58
2022-09-15T22:48:59.877Z,12.58
2022-09-15T22:51:28.290Z,12.58
2022-09-15T22:53:57.739Z,12.52
2022-09-15T22:56:27.090Z,12.52
2022-09-15T22:58:57.259Z,12.54
2022-09-15T23:01:27.694Z,12.53
2022-09-15T23:03:57.892Z,12.47
2022-09-15T23:06:30.607Z,12.41
2022-09-15T23:09:01.082Z,12.30
2022-09-15T23:11:32.174Z,12.31
2022-09-15T23:14:01.014Z,12.23
2022-09-15T23:16:31.038Z,12.23
2022-09-15T23:19:00.192Z,12.21
2022-09-15T23:21:29.951Z,12.14
2022-09-15T23:23:59.097Z,12.11
2022-09-15T23:26:27.655Z,12.07
2022-09-15T23:28:56.076Z,11.99
2022-09-15T23:31:24.445Z,12.20
2022-09-15T23:33:52.789Z,12.11
2022-09-15T23:36:21.147Z,12.09
2022-09-15T23:38:51.204Z,12.13
2022-09-15T23:41:20.199Z,12.06
2022-09-15T23:43:48.550Z,12.09
2022-09-15T23:46:17.248Z,12.16
2022-09-15T23:48:45.893Z,12.12
2022-09-15T23:51:14.253Z,12.16
2022-09-15T23:53:42.848Z,12.14
2022-09-15T23:56:12.582Z,12.15
2022-09-15T23:58:41.066Z,12.09
